Birmingham, New Jersey
Current Conditions -  °F | °C
As of 9:58 AM on Monday 22 Dec 2014 (Local Time) from KWRI Reporting Station
Clear Clear  
Wind Chill: 36°   Ceiling: Unl
Heat Index: 40°   Visibility: 10mi
Dew Point: 34°   Wind: 6mph
Humidity: 78%   Direction: 20°NNE
Pressure: 30.3"   Gusts: NA
Location:  39.98°N, 74.71°W
Report Text: KWRI 221458Z AUTO 02005KT 10SM CLR 05/01 A3030 RMK AO2 SLP265 T00450010 52007 $
Loading
Personal Weather Stations






























Interactive Weather Map New forecast layout! Learn more

10-Day Weather Forecast

Advertisements
Track Severe Weather on mobile